sensor_id;sensor_type;location;lat;lon;timestamp;temperature;humidity
17984;DHT22;9117;52.420;20.728;2023-04-24T00:00:37;12.60;62.10
17984;DHT22;9117;52.420;20.728;2023-04-24T00:03:09;12.50;64.90
17984;DHT22;9117;52.420;20.728;2023-04-24T00:05:38;12.40;66.30
17984;DHT22;9117;52.420;20.728;2023-04-24T00:08:08;12.40;61.40
17984;DHT22;9117;52.420;20.728;2023-04-24T00:10:36;12.40;66.70
17984;DHT22;9117;52.420;20.728;2023-04-24T00:13:04;12.40;66.20
17984;DHT22;9117;52.420;20.728;2023-04-24T00:15:32;12.30;68.60
17984;DHT22;9117;52.420;20.728;2023-04-24T00:18:01;12.30;68.00
17984;DHT22;9117;52.420;20.728;2023-04-24T00:20:31;12.00;67.90
17984;DHT22;9117;52.420;20.728;2023-04-24T00:23:00;11.80;68.60
17984;DHT22;9117;52.420;20.728;2023-04-24T00:25:28;11.80;72.60
17984;DHT22;9117;52.420;20.728;2023-04-24T00:27:56;11.80;75.20
17984;DHT22;9117;52.420;20.728;2023-04-24T00:30:24;11.70;75.40
17984;DHT22;9117;52.420;20.728;2023-04-24T00:32:53;11.70;79.80
17984;DHT22;9117;52.420;20.728;2023-04-24T00:35:21;11.70;82.10
17984;DHT22;9117;52.420;20.728;2023-04-24T00:37:51;11.70;81.20
17984;DHT22;9117;52.420;20.728;2023-04-24T00:40:19;11.80;83.00
17984;DHT22;9117;52.420;20.728;2023-04-24T00:42:48;11.90;84.30
17984;DHT22;9117;52.420;20.728;2023-04-24T00:45:16;11.90;81.60
17984;DHT22;9117;52.420;20.728;2023-04-24T00:47:45;11.70;85.20
17984;DHT22;9117;52.420;20.728;2023-04-24T00:50:15;11.70;83.10
17984;DHT22;9117;52.420;20.728;2023-04-24T00:52:43;11.60;86.90
17984;DHT22;9117;52.420;20.728;2023-04-24T00:55:13;11.60;80.70
17984;DHT22;9117;52.420;20.728;2023-04-24T00:57:41;11.50;84.90
17984;DHT22;9117;52.420;20.728;2023-04-24T01:00:10;11.40;89.40
17984;DHT22;9117;52.420;20.728;2023-04-24T01:02:40;11.40;85.90
17984;DHT22;9117;52.420;20.728;2023-04-24T01:05:11;11.30;90.30
17984;DHT22;9117;52.420;20.728;2023-04-24T01:07:41;11.30;90.60
17984;DHT22;9117;52.420;20.728;2023-04-24T01:10:14;11.10;90.80
17984;DHT22;9117;52.420;20.728;2023-04-24T01:12:43;11.10;92.20
17984;DHT22;9117;52.420;20.728;2023-04-24T01:15:12;10.70;91.80
17984;DHT22;9117;52.420;20.728;2023-04-24T01:17:40;10.70;90.60
17984;DHT22;9117;52.420;20.728;2023-04-24T01:20:09;10.80;89.70
17984;DHT22;9117;52.420;20.728;2023-04-24T01:22:40;10.90;92.60
17984;DHT22;9117;52.420;20.728;2023-04-24T01:25:08;10.90;91.10
17984;DHT22;9117;52.420;20.728;2023-04-24T01:27:36;10.90;91.30
17984;DHT22;9117;52.420;20.728;2023-04-24T01:30:06;10.90;91.20
17984;DHT22;9117;52.420;20.728;2023-04-24T01:32:35;10.90;90.90
17984;DHT22;9117;52.420;20.728;2023-04-24T01:35:05;10.80;89.70
17984;DHT22;9117;52.420;20.728;2023-04-24T01:37:34;10.60;89.10
17984;DHT22;9117;52.420;20.728;2023-04-24T01:40:07;10.60;90.10
17984;DHT22;9117;52.420;20.728;2023-04-24T01:42:35;10.70;90.10
17984;DHT22;9117;52.420;20.728;2023-04-24T01:45:05;10.70;90.20
17984;DHT22;9117;52.420;20.728;2023-04-24T01:47:33;10.60;91.80
17984;DHT22;9117;52.420;20.728;2023-04-24T01:50:02;10.70;91.30
17984;DHT22;9117;52.420;20.728;2023-04-24T01:52:30;10.60;91.40
17984;DHT22;9117;52.420;20.728;2023-04-24T01:55:00;10.60;91.70
17984;DHT22;9117;52.420;20.728;2023-04-24T01:57:30;10.50;92.00
17984;DHT22;9117;52.420;20.728;2023-04-24T01:59:59;10.60;91.90
17984;DHT22;9117;52.420;20.728;2023-04-24T02:02:27;10.50;91.70
17984;DHT22;9117;52.420;20.728;2023-04-24T02:04:55;10.50;91.50
17984;DHT22;9117;52.420;20.728;2023-04-24T02:07:24;10.30;92.90
17984;DHT22;9117;52.420;20.728;2023-04-24T02:09:52;10.30;92.00
17984;DHT22;9117;52.420;20.728;2023-04-24T02:12:20;10.30;93.20
17984;DHT22;9117;52.420;20.728;2023-04-24T02:14:50;10.20;93.50
17984;DHT22;9117;52.420;20.728;2023-04-24T02:17:18;10.20;93.20
17984;DHT22;9117;52.420;20.728;2023-04-24T02:19:46;10.20;94.40
17984;DHT22;9117;52.420;20.728;2023-04-24T02:22:14;10.20;95.00
17984;DHT22;9117;52.420;20.728;2023-04-24T02:24:42;10.10;93.10
17984;DHT22;9117;52.420;20.728;2023-04-24T02:27:11;10.00;95.20
17984;DHT22;9117;52.420;20.728;2023-04-24T02:29:39;9.90;95.30
17984;DHT22;9117;52.420;20.728;2023-04-24T02:32:09;9.90;96.00
17984;DHT22;9117;52.420;20.728;2023-04-24T02:34:39;9.90;98.80
17984;DHT22;9117;52.420;20.728;2023-04-24T02:37:07;9.80;99.40
17984;DHT22;9117;52.420;20.728;2023-04-24T02:39:35;10.00;97.60
17984;DHT22;9117;52.420;20.728;2023-04-24T02:42:03;9.80;96.10
17984;DHT22;9117;52.420;20.728;2023-04-24T02:44:32;9.70;98.20
17984;DHT22;9117;52.420;20.728;2023-04-24T02:47:00;9.60;97.00
17984;DHT22;9117;52.420;20.728;2023-04-24T02:49:30;9.50;97.70
17984;DHT22;9117;52.420;20.728;2023-04-24T02:51:58;9.60;97.10
17984;DHT22;9117;52.420;20.728;2023-04-24T02:54:26;9.70;97.00
17984;DHT22;9117;52.420;20.728;2023-04-24T02:56:54;9.70;98.40
17984;DHT22;9117;52.420;20.728;2023-04-24T02:59:23;9.70;99.80
17984;DHT22;9117;52.420;20.728;2023-04-24T03:01:54;9.70;99.10
17984;DHT22;9117;52.420;20.728;2023-04-24T03:04:22;9.60;99.90
17984;DHT22;9117;52.420;20.728;2023-04-24T03:06:52;9.60;99.90
17984;DHT22;9117;52.420;20.728;2023-04-24T03:09:21;9.50;99.00
17984;DHT22;9117;52.420;20.728;2023-04-24T03:11:49;9.50;99.90
17984;DHT22;9117;52.420;20.728;2023-04-24T03:14:18;9.50;98.50
17984;DHT22;9117;52.420;20.728;2023-04-24T03:16:46;9.40;99.90
17984;DHT22;9117;52.420;20.728;2023-04-24T03:19:14;9.30;99.90
17984;DHT22;9117;52.420;20.728;2023-04-24T03:21:42;9.30;99.90
17984;DHT22;9117;52.420;20.728;2023-04-24T03:24:12;9.30;98.40
17984;DHT22;9117;52.420;20.728;2023-04-24T03:26:40;9.20;99.30
17984;DHT22;9117;52.420;20.728;2023-04-24T03:29:08;9.20;98.10
17984;DHT22;9117;52.420;20.728;2023-04-24T03:31:36;9.20;98.00
17984;DHT22;9117;52.420;20.728;2023-04-24T03:34:05;9.10;98.10
17984;DHT22;9117;52.420;20.728;2023-04-24T03:36:33;9.20;97.60
17984;DHT22;9117;52.420;20.728;2023-04-24T03:39:01;9.20;98.00
17984;DHT22;9117;52.420;20.728;2023-04-24T03:41:31;9.30;97.40
17984;DHT22;9117;52.420;20.728;2023-04-24T03:43:59;9.20;97.70
17984;DHT22;9117;52.420;20.728;2023-04-24T03:46:27;9.30;98.60
17984;DHT22;9117;52.420;20.728;2023-04-24T03:48:55;9.40;99.00
17984;DHT22;9117;52.420;20.728;2023-04-24T03:51:24;9.40;99.20
17984;DHT22;9117;52.420;20.728;2023-04-24T03:53:54;9.40;97.90
17984;DHT22;9117;52.420;20.728;2023-04-24T03:56:22;9.40;97.50
17984;DHT22;9117;52.420;20.728;2023-04-24T03:58:52;9.50;96.70
17984;DHT22;9117;52.420;20.728;2023-04-24T04:01:20;9.50;99.10
17984;DHT22;9117;52.420;20.728;2023-04-24T04:03:49;9.60;97.30
17984;DHT22;9117;52.420;20.728;2023-04-24T04:06:17;9.60;98.30
17984;DHT22;9117;52.420;20.728;2023-04-24T04:08:46;9.60;98.70
17984;DHT22;9117;52.420;20.728;2023-04-24T04:11:14;9.60;97.30
17984;DHT22;9117;52.420;20.728;2023-04-24T04:13:42;9.60;99.80
17984;DHT22;9117;52.420;20.728;2023-04-24T04:16:12;9.50;98.50
17984;DHT22;9117;52.420;20.728;2023-04-24T04:18:40;9.50;98.50
17984;DHT22;9117;52.420;20.728;2023-04-24T04:21:08;9.60;98.40
17984;DHT22;9117;52.420;20.728;2023-04-24T04:23:36;9.60;98.90
17984;DHT22;9117;52.420;20.728;2023-04-24T04:26:05;9.70;98.20
17984;DHT22;9117;52.420;20.728;2023-04-24T04:28:33;9.70;98.70
17984;DHT22;9117;52.420;20.728;2023-04-24T04:31:01;9.80;98.50
17984;DHT22;9117;52.420;20.728;2023-04-24T04:33:31;9.80;98.40
17984;DHT22;9117;52.420;20.728;2023-04-24T04:35:59;9.80;98.70
17984;DHT22;9117;52.420;20.728;2023-04-24T04:38:29;9.80;98.90
17984;DHT22;9117;52.420;20.728;2023-04-24T04:40:58;10.00;98.20
17984;DHT22;9117;52.420;20.728;2023-04-24T04:43:26;10.00;98.00
17984;DHT22;9117;52.420;20.728;2023-04-24T04:45:54;10.00;97.80
17984;DHT22;9117;52.420;20.728;2023-04-24T04:48:22;10.10;97.80
17984;DHT22;9117;52.420;20.728;2023-04-24T04:50:52;10.20;98.00
17984;DHT22;9117;52.420;20.728;2023-04-24T04:53:20;10.30;98.90
17984;DHT22;9117;52.420;20.728;2023-04-24T04:55:48;10.40;98.10
17984;DHT22;9117;52.420;20.728;2023-04-24T04:58:17;10.50;98.80
17984;DHT22;9117;52.420;20.728;2023-04-24T05:00:45;10.70;97.70
17984;DHT22;9117;52.420;20.728;2023-04-24T05:03:13;10.80;97.00
17984;DHT22;9117;52.420;20.728;2023-04-24T05:05:47;11.00;98.70
17984;DHT22;9117;52.420;20.728;2023-04-24T05:08:17;11.20;97.30
17984;DHT22;9117;52.420;20.728;2023-04-24T05:10:53;11.40;98.80
17984;DHT22;9117;52.420;20.728;2023-04-24T05:13:21;11.50;98.40
17984;DHT22;9117;52.420;20.728;2023-04-24T05:15:52;11.70;97.40
17984;DHT22;9117;52.420;20.728;2023-04-24T05:18:21;11.80;96.60
17984;DHT22;9117;52.420;20.728;2023-04-24T05:20:49;11.90;97.20
17984;DHT22;9117;52.420;20.728;2023-04-24T05:23:19;12.00;97.80
17984;DHT22;9117;52.420;20.728;2023-04-24T05:25:47;12.10;98.00
17984;DHT22;9117;52.420;20.728;2023-04-24T05:28:15;12.20;98.00
17984;DHT22;9117;52.420;20.728;2023-04-24T05:30:43;12.30;97.30
17984;DHT22;9117;52.420;20.728;2023-04-24T05:33:12;12.30;96.20
17984;DHT22;9117;52.420;20.728;2023-04-24T05:35:41;12.40;96.10
17984;DHT22;9117;52.420;20.728;2023-04-24T05:38:12;12.40;96.20
17984;DHT22;9117;52.420;20.728;2023-04-24T05:40:42;12.50;96.80
17984;DHT22;9117;52.420;20.728;2023-04-24T05:43:10;12.60;97.00
17984;DHT22;9117;52.420;20.728;2023-04-24T05:45:38;12.70;96.50
17984;DHT22;9117;52.420;20.728;2023-04-24T05:48:07;12.70;95.90
17984;DHT22;9117;52.420;20.728;2023-04-24T05:50:35;12.90;96.80
17984;DHT22;9117;52.420;20.728;2023-04-24T05:53:03;12.90;97.20
17984;DHT22;9117;52.420;20.728;2023-04-24T05:55:33;13.00;98.20
17984;DHT22;9117;52.420;20.728;2023-04-24T05:58:04;13.00;97.40
17984;DHT22;9117;52.420;20.728;2023-04-24T06:00:32;13.10;97.20
17984;DHT22;9117;52.420;20.728;2023-04-24T06:03:01;13.20;95.40
17984;DHT22;9117;52.420;20.728;2023-04-24T06:05:30;13.20;95.50
17984;DHT22;9117;52.420;20.728;2023-04-24T06:07:59;13.30;95.10
17984;DHT22;9117;52.420;20.728;2023-04-24T06:10:27;13.50;95.40
17984;DHT22;9117;52.420;20.728;2023-04-24T06:12:55;13.50;94.00
17984;DHT22;9117;52.420;20.728;2023-04-24T06:15:30;13.70;94.10
17984;DHT22;9117;52.420;20.728;2023-04-24T06:17:58;13.70;93.90
17984;DHT22;9117;52.420;20.728;2023-04-24T06:20:27;13.70;93.60
17984;DHT22;9117;52.420;20.728;2023-04-24T06:22:55;13.80;93.40
17984;DHT22;9117;52.420;20.728;2023-04-24T06:25:25;14.00;93.70
17984;DHT22;9117;52.420;20.728;2023-04-24T06:27:54;14.00;93.70
17984;DHT22;9117;52.420;20.728;2023-04-24T06:30:22;14.00;92.90
17984;DHT22;9117;52.420;20.728;2023-04-24T06:32:52;14.10;92.60
17984;DHT22;9117;52.420;20.728;2023-04-24T06:35:26;14.20;92.70
17984;DHT22;9117;52.420;20.728;2023-04-24T06:37:54;14.20;93.30
17984;DHT22;9117;52.420;20.728;2023-04-24T06:40:23;14.30;92.90
17984;DHT22;9117;52.420;20.728;2023-04-24T06:42:52;14.30;92.20
17984;DHT22;9117;52.420;20.728;2023-04-24T06:45:20;14.40;93.60
17984;DHT22;9117;52.420;20.728;2023-04-24T06:47:48;14.50;92.80
17984;DHT22;9117;52.420;20.728;2023-04-24T06:50:18;14.60;91.10
17984;DHT22;9117;52.420;20.728;2023-04-24T06:52:47;14.70;91.60
17984;DHT22;9117;52.420;20.728;2023-04-24T06:55:15;14.80;93.10
17984;DHT22;9117;52.420;20.728;2023-04-24T06:57:43;14.90;94.40
17984;DHT22;9117;52.420;20.728;2023-04-24T07:00:13;15.00;94.10
17984;DHT22;9117;52.420;20.728;2023-04-24T07:02:41;15.00;92.70
17984;DHT22;9117;52.420;20.728;2023-04-24T07:05:10;15.30;93.70
17984;DHT22;9117;52.420;20.728;2023-04-24T07:07:41;15.60;93.60
17984;DHT22;9117;52.420;20.728;2023-04-24T07:10:10;15.70;93.10
17984;DHT22;9117;52.420;20.728;2023-04-24T07:12:38;15.80;93.30
17984;DHT22;9117;52.420;20.728;2023-04-24T07:15:07;15.90;93.10
17984;DHT22;9117;52.420;20.728;2023-04-24T07:17:35;16.00;92.40
17984;DHT22;9117;52.420;20.728;2023-04-24T07:20:06;16.10;93.30
17984;DHT22;9117;52.420;20.728;2023-04-24T07:22:36;16.10;91.80
17984;DHT22;9117;52.420;20.728;2023-04-24T07:25:07;16.20;91.20
17984;DHT22;9117;52.420;20.728;2023-04-24T07:27:36;16.30;91.40
17984;DHT22;9117;52.420;20.728;2023-04-24T07:30:05;16.30;92.40
17984;DHT22;9117;52.420;20.728;2023-04-24T07:32:33;16.40;91.00
17984;DHT22;9117;52.420;20.728;2023-04-24T07:35:02;16.60;90.80
17984;DHT22;9117;52.420;20.728;2023-04-24T07:37:30;16.70;90.80
17984;DHT22;9117;52.420;20.728;2023-04-24T07:39:59;16.90;90.70
17984;DHT22;9117;52.420;20.728;2023-04-24T07:42:30;17.10;90.00
17984;DHT22;9117;52.420;20.728;2023-04-24T07:45:01;17.30;90.10
17984;DHT22;9117;52.420;20.728;2023-04-24T07:47:29;17.40;90.70
17984;DHT22;9117;52.420;20.728;2023-04-24T07:49:59;17.60;90.00
17984;DHT22;9117;52.420;20.728;2023-04-24T07:52:27;17.80;90.60
17984;DHT22;9117;52.420;20.728;2023-04-24T07:54:55;18.00;83.50
17984;DHT22;9117;52.420;20.728;2023-04-24T07:57:25;18.10;84.70
17984;DHT22;9117;52.420;20.728;2023-04-24T07:59:54;18.40;87.20
17984;DHT22;9117;52.420;20.728;2023-04-24T08:02:23;18.40;84.60
17984;DHT22;9117;52.420;20.728;2023-04-24T08:04:53;18.30;84.00
17984;DHT22;9117;52.420;20.728;2023-04-24T08:07:24;18.40;88.70
17984;DHT22;9117;52.420;20.728;2023-04-24T08:09:52;18.50;86.60
17984;DHT22;9117;52.420;20.728;2023-04-24T08:12:20;18.60;84.70
17984;DHT22;9117;52.420;20.728;2023-04-24T08:14:49;18.60;85.80
17984;DHT22;9117;52.420;20.728;2023-04-24T08:17:18;18.80;84.50
17984;DHT22;9117;52.420;20.728;2023-04-24T08:19:46;18.90;84.70
17984;DHT22;9117;52.420;20.728;2023-04-24T08:22:15;18.90;81.90
17984;DHT22;9117;52.420;20.728;2023-04-24T08:24:43;19.00;83.80
17984;DHT22;9117;52.420;20.728;2023-04-24T08:27:11;19.00;84.90
17984;DHT22;9117;52.420;20.728;2023-04-24T08:29:39;19.20;84.30
17984;DHT22;9117;52.420;20.728;2023-04-24T08:32:08;19.30;81.90
17984;DHT22;9117;52.420;20.728;2023-04-24T08:34:38;19.60;84.00
17984;DHT22;9117;52.420;20.728;2023-04-24T08:37:06;19.90;79.30
17984;DHT22;9117;52.420;20.728;2023-04-24T08:39:34;20.20;80.80
17984;DHT22;9117;52.420;20.728;2023-04-24T08:42:03;20.20;78.20
17984;DHT22;9117;52.420;20.728;2023-04-24T08:44:36;20.00;75.70
17984;DHT22;9117;52.420;20.728;2023-04-24T08:47:04;20.40;77.00
17984;DHT22;9117;52.420;20.728;2023-04-24T08:49:33;20.00;73.50
17984;DHT22;9117;52.420;20.728;2023-04-24T08:52:05;20.00;72.80
17984;DHT22;9117;52.420;20.728;2023-04-24T08:54:34;20.00;73.40
17984;DHT22;9117;52.420;20.728;2023-04-24T08:57:06;19.80;71.00
17984;DHT22;9117;52.420;20.728;2023-04-24T08:59:36;19.90;73.50
17984;DHT22;9117;52.420;20.728;2023-04-24T09:02:06;19.80;73.10
17984;DHT22;9117;52.420;20.728;2023-04-24T09:04:38;19.90;73.90
17984;DHT22;9117;52.420;20.728;2023-04-24T09:07:10;20.00;76.20
17984;DHT22;9117;52.420;20.728;2023-04-24T09:09:41;20.10;75.30
17984;DHT22;9117;52.420;20.728;2023-04-24T09:12:10;20.30;74.90
17984;DHT22;9117;52.420;20.728;2023-04-24T09:14:39;20.50;75.00
17984;DHT22;9117;52.420;20.728;2023-04-24T09:17:12;20.70;68.60
17984;DHT22;9117;52.420;20.728;2023-04-24T09:19:41;20.50;66.00
17984;DHT22;9117;52.420;20.728;2023-04-24T09:22:15;20.70;66.80
17984;DHT22;9117;52.420;20.728;2023-04-24T09:24:45;20.60;66.00
17984;DHT22;9117;52.420;20.728;2023-04-24T09:27:13;20.70;67.00
17984;DHT22;9117;52.420;20.728;2023-04-24T09:29:53;20.60;66.60
17984;DHT22;9117;52.420;20.728;2023-04-24T09:32:23;20.50;69.80
17984;DHT22;9117;52.420;20.728;2023-04-24T09:35:06;20.60;65.40
17984;DHT22;9117;52.420;20.728;2023-04-24T09:37:40;20.60;65.60
17984;DHT22;9117;52.420;20.728;2023-04-24T09:40:11;20.60;65.80
17984;DHT22;9117;52.420;20.728;2023-04-24T09:45:11;20.50;64.00
17984;DHT22;9117;52.420;20.728;2023-04-24T09:47:43;20.60;62.30
17984;DHT22;9117;52.420;20.728;2023-04-24T09:50:13;20.60;62.70
17984;DHT22;9117;52.420;20.728;2023-04-24T09:52:46;20.60;63.40
17984;DHT22;9117;52.420;20.728;2023-04-24T09:55:19;20.60;62.20
17984;DHT22;9117;52.420;20.728;2023-04-24T09:57:52;20.70;61.00
17984;DHT22;9117;52.420;20.728;2023-04-24T10:00:25;20.80;63.00
17984;DHT22;9117;52.420;20.728;2023-04-24T10:03:01;20.80;62.90
17984;DHT22;9117;52.420;20.728;2023-04-24T10:05:31;20.80;61.80
17984;DHT22;9117;52.420;20.728;2023-04-24T10:08:03;21.00;62.00
17984;DHT22;9117;52.420;20.728;2023-04-24T10:10:33;21.00;62.80
17984;DHT22;9117;52.420;20.728;2023-04-24T10:13:01;21.10;62.80
17984;DHT22;9117;52.420;20.728;2023-04-24T10:15:30;21.30;65.00
17984;DHT22;9117;52.420;20.728;2023-04-24T10:17:59;21.20;59.70
17984;DHT22;9117;52.420;20.728;2023-04-24T10:20:29;21.30;61.60
17984;DHT22;9117;52.420;20.728;2023-04-24T10:22:59;21.20;59.10
17984;DHT22;9117;52.420;20.728;2023-04-24T10:25:30;21.20;59.40
17984;DHT22;9117;52.420;20.728;2023-04-24T10:27:59;21.40;62.80
17984;DHT22;9117;52.420;20.728;2023-04-24T10:30:30;21.40;59.80
17984;DHT22;9117;52.420;20.728;2023-04-24T10:33:02;21.80;60.40
17984;DHT22;9117;52.420;20.728;2023-04-24T10:35:31;21.70;57.10
17984;DHT22;9117;52.420;20.728;2023-04-24T10:38:05;21.70;56.30
17984;DHT22;9117;52.420;20.728;2023-04-24T10:40:36;21.60;58.50
17984;DHT22;9117;52.420;20.728;2023-04-24T10:43:06;21.50;57.10
17984;DHT22;9117;52.420;20.728;2023-04-24T10:45:36;21.50;57.50
17984;DHT22;9117;52.420;20.728;2023-04-24T10:48:06;21.60;54.10
17984;DHT22;9117;52.420;20.728;2023-04-24T10:50:46;21.80;56.10
17984;DHT22;9117;52.420;20.728;2023-04-24T10:53:16;21.80;56.10
17984;DHT22;9117;52.420;20.728;2023-04-24T10:55:47;21.80;55.50
17984;DHT22;9117;52.420;20.728;2023-04-24T10:58:16;21.90;54.30
17984;DHT22;9117;52.420;20.728;2023-04-24T11:00:56;21.70;51.80
17984;DHT22;9117;52.420;20.728;2023-04-24T11:03:26;21.50;52.00
17984;DHT22;9117;52.420;20.728;2023-04-24T11:05:58;21.50;53.60
17984;DHT22;9117;52.420;20.728;2023-04-24T11:08:29;21.80;67.00
17984;DHT22;9117;52.420;20.728;2023-04-24T11:11:01;21.80;56.20
17984;DHT22;9117;52.420;20.728;2023-04-24T11:14:01;21.70;53.00
17984;DHT22;9117;52.420;20.728;2023-04-24T11:16:31;21.70;52.90
17984;DHT22;9117;52.420;20.728;2023-04-24T11:19:02;21.70;49.30
17984;DHT22;9117;52.420;20.728;2023-04-24T11:21:31;21.70;53.70
17984;DHT22;9117;52.420;20.728;2023-04-24T11:24:24;21.50;49.40
17984;DHT22;9117;52.420;20.728;2023-04-24T11:26:56;21.40;48.40
17984;DHT22;9117;52.420;20.728;2023-04-24T11:29:39;21.20;50.40
17984;DHT22;9117;52.420;20.728;2023-04-24T11:32:15;21.30;50.90
17984;DHT22;9117;52.420;20.728;2023-04-24T11:34:46;21.40;49.20
17984;DHT22;9117;52.420;20.728;2023-04-24T11:37:15;21.50;50.70
17984;DHT22;9117;52.420;20.728;2023-04-24T11:39:43;21.40;48.00
17984;DHT22;9117;52.420;20.728;2023-04-24T11:42:15;21.20;44.80
17984;DHT22;9117;52.420;20.728;2023-04-24T11:44:43;20.70;43.90
17984;DHT22;9117;52.420;20.728;2023-04-24T11:47:14;20.50;41.60
17984;DHT22;9117;52.420;20.728;2023-04-24T11:49:42;20.50;45.50
17984;DHT22;9117;52.420;20.728;2023-04-24T11:52:11;20.80;44.40
17984;DHT22;9117;52.420;20.728;2023-04-24T11:54:50;21.00;44.20
17984;DHT22;9117;52.420;20.728;2023-04-24T11:57:21;21.30;41.90
17984;DHT22;9117;52.420;20.728;2023-04-24T11:59:49;21.40;40.90
17984;DHT22;9117;52.420;20.728;2023-04-24T12:02:22;21.60;39.80
17984;DHT22;9117;52.420;20.728;2023-04-24T12:04:51;21.80;41.40
17984;DHT22;9117;52.420;20.728;2023-04-24T12:07:21;21.90;40.60
17984;DHT22;9117;52.420;20.728;2023-04-24T12:09:55;22.20;41.20
17984;DHT22;9117;52.420;20.728;2023-04-24T12:12:27;22.60;43.70
17984;DHT22;9117;52.420;20.728;2023-04-24T12:14:57;22.40;43.60
17984;DHT22;9117;52.420;20.728;2023-04-24T12:17:27;23.00;44.90
17984;DHT22;9117;52.420;20.728;2023-04-24T12:19:59;23.00;43.10
17984;DHT22;9117;52.420;20.728;2023-04-24T12:22:43;23.20;42.50
17984;DHT22;9117;52.420;20.728;2023-04-24T12:25:12;23.30;42.90
17984;DHT22;9117;52.420;20.728;2023-04-24T12:27:43;23.50;40.80
17984;DHT22;9117;52.420;20.728;2023-04-24T12:30:13;23.30;40.40
17984;DHT22;9117;52.420;20.728;2023-04-24T12:32:43;23.70;39.60
17984;DHT22;9117;52.420;20.728;2023-04-24T12:35:11;23.70;39.70
17984;DHT22;9117;52.420;20.728;2023-04-24T12:37:42;24.60;39.10
17984;DHT22;9117;52.420;20.728;2023-04-24T12:40:14;25.10;39.00
17984;DHT22;9117;52.420;20.728;2023-04-24T12:42:44;24.40;38.80
17984;DHT22;9117;52.420;20.728;2023-04-24T12:45:14;25.50;40.40
17984;DHT22;9117;52.420;20.728;2023-04-24T12:47:44;26.00;38.30
17984;DHT22;9117;52.420;20.728;2023-04-24T12:50:13;25.10;37.20
17984;DHT22;9117;52.420;20.728;2023-04-24T12:52:45;25.30;39.50
17984;DHT22;9117;52.420;20.728;2023-04-24T12:55:13;25.60;40.50
17984;DHT22;9117;52.420;20.728;2023-04-24T12:57:43;25.00;37.40
17984;DHT22;9117;52.420;20.728;2023-04-24T13:00:12;23.90;37.30
17984;DHT22;9117;52.420;20.728;2023-04-24T13:02:40;23.10;40.40
17984;DHT22;9117;52.420;20.728;2023-04-24T13:05:09;22.80;39.90
17984;DHT22;9117;52.420;20.728;2023-04-24T13:07:38;23.70;39.80
17984;DHT22;9117;52.420;20.728;2023-04-24T13:10:07;24.10;39.80
17984;DHT22;9117;52.420;20.728;2023-04-24T13:12:36;25.00;40.20
17984;DHT22;9117;52.420;20.728;2023-04-24T13:15:07;25.00;38.20
17984;DHT22;9117;52.420;20.728;2023-04-24T13:17:35;24.80;37.20
17984;DHT22;9117;52.420;20.728;2023-04-24T13:20:04;23.20;38.70
17984;DHT22;9117;52.420;20.728;2023-04-24T13:22:33;22.40;40.40
17984;DHT22;9117;52.420;20.728;2023-04-24T13:25:01;21.40;41.30
17984;DHT22;9117;52.420;20.728;2023-04-24T13:27:29;20.80;43.70
17984;DHT22;9117;52.420;20.728;2023-04-24T13:29:58;20.10;44.70
17984;DHT22;9117;52.420;20.728;2023-04-24T13:32:28;19.30;47.10
17984;DHT22;9117;52.420;20.728;2023-04-24T13:34:56;19.10;47.30
17984;DHT22;9117;52.420;20.728;2023-04-24T13:37:24;18.50;44.00
17984;DHT22;9117;52.420;20.728;2023-04-24T13:39:53;18.20;47.00
17984;DHT22;9117;52.420;20.728;2023-04-24T13:42:21;18.10;49.00
17984;DHT22;9117;52.420;20.728;2023-04-24T13:44:49;18.10;50.40
17984;DHT22;9117;52.420;20.728;2023-04-24T13:47:18;18.10;49.50
17984;DHT22;9117;52.420;20.728;2023-04-24T13:49:48;18.20;50.70
17984;DHT22;9117;52.420;20.728;2023-04-24T13:52:16;18.20;48.80
17984;DHT22;9117;52.420;20.728;2023-04-24T13:54:45;18.20;50.20
17984;DHT22;9117;52.420;20.728;2023-04-24T13:57:14;18.40;51.90
17984;DHT22;9117;52.420;20.728;2023-04-24T13:59:43;18.20;50.30
17984;DHT22;9117;52.420;20.728;2023-04-24T14:02:11;18.20;50.60
17984;DHT22;9117;52.420;20.728;2023-04-24T14:04:40;18.20;50.20
17984;DHT22;9117;52.420;20.728;2023-04-24T14:07:10;18.20;50.50
17984;DHT22;9117;52.420;20.728;2023-04-24T14:09:38;18.30;47.80
17984;DHT22;9117;52.420;20.728;2023-04-24T14:12:06;18.20;47.40
17984;DHT22;9117;52.420;20.728;2023-04-24T14:14:34;18.40;48.20
17984;DHT22;9117;52.420;20.728;2023-04-24T14:17:02;18.40;48.40
17984;DHT22;9117;52.420;20.728;2023-04-24T14:19:31;18.50;48.80
17984;DHT22;9117;52.420;20.728;2023-04-24T14:22:00;18.40;49.10
17984;DHT22;9117;52.420;20.728;2023-04-24T14:24:29;18.50;49.10
17984;DHT22;9117;52.420;20.728;2023-04-24T14:26:57;18.40;49.40
17984;DHT22;9117;52.420;20.728;2023-04-24T14:29:26;18.50;49.90
17984;DHT22;9117;52.420;20.728;2023-04-24T14:31:54;18.60;50.20
17984;DHT22;9117;52.420;20.728;2023-04-24T14:34:22;18.80;52.30
17984;DHT22;9117;52.420;20.728;2023-04-24T14:36:50;18.90;51.50
17984;DHT22;9117;52.420;20.728;2023-04-24T14:39:18;19.10;51.20
17984;DHT22;9117;52.420;20.728;2023-04-24T14:41:48;19.10;51.30
17984;DHT22;9117;52.420;20.728;2023-04-24T14:44:17;19.30;52.60
17984;DHT22;9117;52.420;20.728;2023-04-24T14:46:45;19.30;52.10
17984;DHT22;9117;52.420;20.728;2023-04-24T14:49:13;19.40;52.60
17984;DHT22;9117;52.420;20.728;2023-04-24T14:51:41;19.50;51.30
17984;DHT22;9117;52.420;20.728;2023-04-24T14:54:10;19.80;51.70
17984;DHT22;9117;52.420;20.728;2023-04-24T14:56:38;20.00;52.70
17984;DHT22;9117;52.420;20.728;2023-04-24T14:59:09;20.10;52.80
17984;DHT22;9117;52.420;20.728;2023-04-24T15:01:37;20.40;51.50
17984;DHT22;9117;52.420;20.728;2023-04-24T15:04:05;21.10;54.40
17984;DHT22;9117;52.420;20.728;2023-04-24T15:06:34;21.70;51.90
17984;DHT22;9117;52.420;20.728;2023-04-24T15:09:02;22.60;52.30
17984;DHT22;9117;52.420;20.728;2023-04-24T15:11:30;23.80;48.70
17984;DHT22;9117;52.420;20.728;2023-04-24T15:13:58;25.20;49.00
17984;DHT22;9117;52.420;20.728;2023-04-24T15:16:28;26.10;45.80
17984;DHT22;9117;52.420;20.728;2023-04-24T15:18:56;26.90;43.10
17984;DHT22;9117;52.420;20.728;2023-04-24T15:21:25;25.60;40.00
17984;DHT22;9117;52.420;20.728;2023-04-24T15:23:53;26.00;41.80
17984;DHT22;9117;52.420;20.728;2023-04-24T15:26:22;26.00;46.30
17984;DHT22;9117;52.420;20.728;2023-04-24T15:28:51;27.20;43.80
17984;DHT22;9117;52.420;20.728;2023-04-24T15:31:20;27.70;40.60
17984;DHT22;9117;52.420;20.728;2023-04-24T15:33:51;27.70;39.30
17984;DHT22;9117;52.420;20.728;2023-04-24T15:36:19;27.80;39.60
17984;DHT22;9117;52.420;20.728;2023-04-24T15:38:48;27.20;36.40
17984;DHT22;9117;52.420;20.728;2023-04-24T15:41:17;27.00;34.50
17984;DHT22;9117;52.420;20.728;2023-04-24T15:43:45;27.40;37.90
17984;DHT22;9117;52.420;20.728;2023-04-24T15:46:14;27.20;35.40
17984;DHT22;9117;52.420;20.728;2023-04-24T15:48:42;27.30;36.00